createdAt,value
2023-05-05T00:00:35.010Z,36.42
2023-05-05T00:03:03.940Z,36.49
2023-05-05T00:05:33.089Z,36.19
2023-05-05T00:08:01.897Z,35.99
2023-05-05T00:10:30.578Z,36.34
2023-05-05T00:12:59.550Z,36.08
2023-05-05T00:15:28.267Z,35.82
2023-05-05T00:17:57.291Z,35.21
2023-05-05T00:20:26.041Z,35.60
2023-05-05T00:22:54.998Z,35.94
2023-05-05T00:25:26.840Z,36.54
2023-05-05T00:27:55.916Z,36.46
2023-05-05T00:30:25.098Z,36.53
2023-05-05T00:32:54.744Z,35.67
2023-05-05T00:35:23.642Z,35.34
2023-05-05T00:37:52.626Z,35.73
2023-05-05T00:40:21.353Z,35.10
2023-05-05T00:42:53.492Z,35.59
2023-05-05T00:45:22.452Z,34.95
2023-05-05T00:47:54.863Z,34.92
2023-05-05T00:50:29.884Z,35.21
2023-05-05T00:53:02.901Z,35.07
2023-05-05T00:55:33.144Z,35.13
2023-05-05T00:58:06.544Z,34.87
2023-05-05T01:00:35.953Z,34.74
2023-05-05T01:03:06.194Z,34.71
2023-05-05T01:06:16.390Z,34.11
2023-05-05T01:09:12.411Z,33.34
2023-05-05T01:11:44.057Z,33.16
2023-05-05T01:14:15.127Z,31.01
2023-05-05T01:17:01.166Z,29.72
2023-05-05T01:19:51.830Z,28.39
2023-05-05T01:22:26.409Z,26.67
2023-05-05T01:25:18.133Z,26.35
2023-05-05T01:28:14.923Z,25.83
2023-05-05T01:31:10.059Z,25.09
2023-05-05T01:33:55.614Z,24.89
2023-05-05T01:36:41.009Z,23.83
2023-05-05T01:39:14.111Z,23.19
2023-05-05T01:41:52.132Z,23.02
2023-05-05T01:44:21.208Z,22.61
2023-05-05T01:46:52.867Z,22.58
2023-05-05T01:49:21.850Z,22.31
2023-05-05T01:51:51.543Z,22.06
2023-05-05T01:54:21.988Z,21.70
2023-05-05T01:56:54.114Z,22.17
2023-05-05T01:59:25.872Z,21.92
2023-05-05T02:01:57.204Z,21.78
2023-05-05T02:04:30.360Z,21.63
2023-05-05T02:07:00.655Z,21.62
2023-05-05T02:09:30.314Z,21.54
2023-05-05T02:12:00.621Z,21.41
2023-05-05T02:14:31.467Z,21.84
2023-05-05T02:17:04.553Z,21.79
2023-05-05T02:19:42.359Z,21.37
2023-05-05T02:22:13.011Z,21.41
2023-05-05T02:24:41.818Z,21.04
2023-05-05T02:27:12.780Z,21.62
2023-05-05T02:29:56.700Z,21.66
2023-05-05T02:32:33.430Z,21.62
2023-05-05T02:35:20.754Z,21.51
2023-05-05T02:38:02.810Z,21.21
2023-05-05T02:40:38.257Z,21.35
2023-05-05T02:43:11.041Z,21.36
2023-05-05T02:45:40.071Z,21.52
2023-05-05T02:48:08.984Z,21.18
2023-05-05T02:50:40.201Z,21.22
2023-05-05T02:53:26.206Z,21.46
2023-05-05T02:55:57.460Z,21.15
2023-05-05T02:58:38.700Z,21.66
2023-05-05T03:01:29.203Z,20.75
2023-05-05T03:04:09.064Z,20.79
2023-05-05T03:06:48.347Z,20.42
2023-05-05T03:09:29.134Z,20.16
2023-05-05T03:12:10.038Z,20.26
2023-05-05T03:14:54.070Z,20.49
2023-05-05T03:17:25.301Z,20.14
2023-05-05T03:19:55.939Z,20.22
2023-05-05T03:22:25.347Z,20.08
2023-05-05T03:24:54.344Z,20.31
2023-05-05T03:27:25.806Z,20.04
2023-05-05T03:29:54.637Z,20.34
2023-05-05T03:32:25.171Z,20.30
2023-05-05T03:34:56.029Z,20.30
2023-05-05T03:37:30.907Z,19.86
2023-05-05T03:40:00.315Z,20.25
2023-05-05T03:42:29.345Z,19.89
2023-05-05T03:45:00.808Z,19.69
2023-05-05T03:47:29.620Z,20.21
2023-05-05T03:50:02.197Z,19.31
2023-05-05T03:52:32.635Z,19.18
2023-05-05T03:55:02.288Z,19.47
2023-05-05T03:57:30.905Z,19.39
2023-05-05T03:59:59.682Z,19.07
2023-05-05T04:02:28.889Z,19.27
2023-05-05T04:05:01.402Z,19.02
2023-05-05T04:07:30.221Z,18.56
2023-05-05T04:09:59.216Z,18.50
2023-05-05T04:12:29.002Z,18.47
2023-05-05T04:14:59.013Z,18.67
2023-05-05T04:17:28.284Z,18.42
2023-05-05T04:19:57.165Z,18.68
2023-05-05T04:22:28.238Z,18.87
2023-05-05T04:24:57.976Z,18.33
2023-05-05T04:27:29.614Z,18.29
2023-05-05T04:29:59.629Z,17.78
2023-05-05T04:32:28.913Z,17.92
2023-05-05T04:34:58.056Z,18.01
2023-05-05T04:37:27.599Z,17.85
2023-05-05T04:39:57.230Z,17.94
2023-05-05T04:42:26.739Z,17.59
2023-05-05T04:44:56.287Z,17.29
2023-05-05T04:47:26.109Z,17.68
2023-05-05T04:49:58.511Z,17.52
2023-05-05T04:52:27.805Z,17.30
2023-05-05T04:54:57.463Z,17.09
2023-05-05T04:57:26.646Z,17.02
2023-05-05T04:59:55.407Z,17.28
2023-05-05T05:02:24.865Z,17.34
2023-05-05T05:04:54.835Z,16.88
2023-05-05T05:07:24.755Z,16.47
2023-05-05T05:09:53.640Z,16.14
2023-05-05T05:12:22.110Z,16.14
2023-05-05T05:14:52.671Z,16.41
2023-05-05T05:17:25.801Z,16.31
2023-05-05T05:19:56.079Z,15.87
2023-05-05T05:22:25.095Z,15.68
2023-05-05T05:24:54.182Z,15.98
2023-05-05T05:27:23.223Z,15.45
2023-05-05T05:29:54.624Z,15.84
2023-05-05T05:32:23.320Z,15.04
2023-05-05T05:34:52.042Z,15.13
2023-05-05T05:37:20.725Z,15.00
2023-05-05T05:39:54.145Z,14.88
2023-05-05T05:42:24.716Z,14.53
2023-05-05T05:44:54.519Z,14.78
2023-05-05T05:47:24.499Z,14.47
2023-05-05T05:49:53.601Z,14.58
2023-05-05T05:52:22.370Z,14.85
2023-05-05T05:54:51.450Z,15.00
2023-05-05T05:57:20.496Z,14.47
2023-05-05T05:59:49.697Z,14.42
2023-05-05T06:02:19.923Z,14.65
2023-05-05T06:04:48.679Z,14.54
2023-05-05T06:07:17.583Z,14.71
2023-05-05T06:09:46.960Z,14.58
2023-05-05T06:12:16.806Z,14.67
2023-05-05T06:14:45.863Z,14.83
2023-05-05T06:17:14.754Z,14.37
2023-05-05T06:19:44.171Z,14.17
2023-05-05T06:22:12.853Z,14.24
2023-05-05T06:24:41.826Z,14.20
2023-05-05T06:27:10.739Z,14.38
2023-05-05T06:29:39.473Z,14.36
2023-05-05T06:32:09.200Z,14.42
2023-05-05T06:34:37.916Z,14.15
2023-05-05T06:37:07.013Z,14.21
2023-05-05T06:39:35.716Z,14.80
2023-05-05T06:42:04.986Z,14.33
2023-05-05T06:44:35.412Z,13.63
2023-05-05T06:47:05.070Z,13.75
2023-05-05T06:49:34.019Z,14.41
2023-05-05T06:52:02.870Z,14.42
2023-05-05T06:54:31.641Z,14.25
2023-05-05T06:57:00.209Z,14.15
2023-05-05T06:59:29.109Z,14.06
2023-05-05T07:01:57.786Z,14.30
2023-05-05T07:04:27.523Z,14.50
2023-05-05T07:06:56.611Z,14.39
2023-05-05T07:09:25.346Z,14.84
2023-05-05T07:11:54.147Z,13.77
2023-05-05T07:14:24.375Z,14.00
2023-05-05T07:16:53.528Z,13.95
2023-05-05T07:19:23.031Z,14.29
2023-05-05T07:21:52.687Z,14.12
2023-05-05T07:24:21.415Z,14.14
2023-05-05T07:26:50.171Z,13.96
2023-05-05T07:29:18.831Z,13.97
2023-05-05T07:31:47.707Z,14.05
2023-05-05T07:34:16.349Z,13.64
2023-05-05T07:36:45.633Z,13.18
2023-05-05T07:39:15.893Z,13.25
2023-05-05T07:41:45.059Z,12.91
2023-05-05T07:44:13.804Z,13.16
2023-05-05T07:46:42.670Z,13.18
2023-05-05T07:49:11.543Z,13.80
2023-05-05T07:51:40.249Z,13.38
2023-05-05T07:54:09.328Z,13.11
2023-05-05T07:56:38.137Z,12.91
2023-05-05T07:59:06.766Z,12.94
2023-05-05T08:01:35.589Z,13.07
2023-05-05T08:04:04.613Z,12.62
2023-05-05T08:06:35.269Z,12.85
2023-05-05T08:09:04.273Z,12.47
2023-05-05T08:11:32.971Z,11.85
2023-05-05T08:14:01.954Z,12.58
2023-05-05T08:16:30.755Z,12.85
2023-05-05T08:18:59.410Z,12.57
2023-05-05T08:21:28.422Z,13.29
2023-05-05T08:23:57.260Z,12.75
2023-05-05T08:26:26.106Z,12.50
2023-05-05T08:28:57.311Z,12.27
2023-05-05T08:31:26.217Z,12.34
2023-05-05T08:33:55.881Z,12.51
2023-05-05T08:36:24.629Z,11.77
2023-05-05T08:38:53.464Z,12.42
2023-05-05T08:41:22.568Z,11.63
2023-05-05T08:43:51.226Z,11.72
2023-05-05T08:46:20.254Z,11.82
2023-05-05T08:48:49.897Z,11.88
2023-05-05T08:51:20.382Z,11.39
2023-05-05T08:53:58.405Z,11.72
2023-05-05T08:56:32.229Z,11.55
2023-05-05T08:59:02.684Z,11.63
2023-05-05T09:01:33.527Z,11.87
2023-05-05T09:04:04.409Z,11.74
2023-05-05T09:06:34.376Z,12.05
2023-05-05T09:09:03.138Z,11.79
2023-05-05T09:11:35.523Z,12.10
2023-05-05T09:14:04.441Z,11.61
2023-05-05T09:16:33.451Z,11.60
2023-05-05T09:19:06.076Z,11.73
2023-05-05T09:21:34.908Z,11.77
2023-05-05T09:24:11.950Z,11.76
2023-05-05T09:26:45.191Z,11.58
2023-05-05T09:29:20.904Z,12.14
2023-05-05T09:32:09.194Z,11.95
2023-05-05T09:34:41.825Z,12.05
2023-05-05T09:37:11.042Z,11.53
2023-05-05T09:39:56.299Z,12.27
2023-05-05T09:42:26.394Z,11.99
2023-05-05T09:44:56.408Z,11.44
2023-05-05T09:47:37.813Z,11.69
2023-05-05T09:50:08.100Z,11.17
2023-05-05T09:52:38.329Z,11.34
2023-05-05T09:55:10.013Z,10.97
2023-05-05T09:57:41.402Z,10.91
2023-05-05T10:00:12.161Z,11.22
2023-05-05T10:02:41.134Z,11.49
2023-05-05T10:05:12.398Z,11.02
2023-05-05T10:07:44.666Z,10.79
2023-05-05T10:10:15.827Z,11.48
2023-05-05T10:12:47.097Z,11.02
2023-05-05T10:15:17.255Z,11.59
2023-05-05T10:18:06.058Z,11.56
2023-05-05T10:20:39.246Z,11.80
2023-05-05T10:23:11.316Z,11.54
2023-05-05T10:25:51.207Z,11.99
2023-05-05T10:28:28.305Z,11.69
2023-05-05T10:30:59.903Z,11.94
2023-05-05T10:33:40.952Z,11.96
2023-05-05T10:36:12.472Z,11.52
2023-05-05T10:38:45.605Z,11.95
2023-05-05T10:41:16.684Z,11.91
2023-05-05T10:43:49.338Z,11.68
2023-05-05T10:46:19.212Z,11.98
2023-05-05T10:49:13.254Z,11.88
2023-05-05T10:52:09.227Z,12.32
2023-05-05T10:54:51.557Z,12.23
2023-05-05T10:57:24.919Z,12.39
2023-05-05T10:59:53.677Z,12.35
2023-05-05T11:02:30.194Z,12.72
2023-05-05T11:05:10.941Z,12.77
2023-05-05T11:07:40.536Z,12.70
2023-05-05T11:10:11.518Z,12.49
2023-05-05T11:13:04.082Z,12.84
2023-05-05T11:15:38.187Z,12.68
2023-05-05T11:18:10.570Z,13.23
2023-05-05T11:20:44.058Z,13.09
2023-05-05T11:23:15.231Z,12.57
2023-05-05T11:25:46.044Z,12.25
2023-05-05T11:28:19.800Z,12.44
2023-05-05T11:30:58.262Z,12.43
2023-05-05T11:33:29.683Z,12.51
2023-05-05T11:36:07.548Z,12.62
2023-05-05T11:39:10.467Z,12.85
2023-05-05T11:41:39.624Z,12.74
2023-05-05T11:44:21.418Z,12.91
2023-05-05T11:46:53.219Z,13.07
2023-05-05T11:49:31.275Z,13.22
2023-05-05T11:52:11.658Z,13.28
2023-05-05T11:54:51.315Z,13.63
2023-05-05T11:57:28.278Z,13.59
2023-05-05T12:00:02.794Z,13.63
2023-05-05T12:02:33.286Z,13.69
2023-05-05T12:05:02.777Z,14.10
2023-05-05T12:07:33.876Z,13.33
2023-05-05T12:10:02.905Z,13.54
2023-05-05T12:12:39.157Z,13.65
2023-05-05T12:15:10.092Z,13.25
2023-05-05T12:17:41.788Z,13.18
2023-05-05T12:20:12.570Z,13.21
2023-05-05T12:22:42.059Z,13.18
2023-05-05T12:25:11.536Z,13.30
2023-05-05T12:27:40.727Z,13.00
2023-05-05T12:30:17.848Z,12.84
2023-05-05T12:32:47.261Z,12.95
2023-05-05T12:35:16.865Z,13.32
2023-05-05T12:37:46.182Z,13.76
2023-05-05T12:41:02.590Z,13.95
2023-05-05T12:43:34.038Z,13.46
2023-05-05T12:46:03.471Z,13.48
2023-05-05T12:48:32.518Z,13.65
2023-05-05T12:51:23.815Z,13.73
2023-05-05T12:54:10.612Z,13.48
2023-05-05T12:56:44.788Z,13.52
2023-05-05T12:59:30.339Z,14.05
2023-05-05T13:02:02.188Z,13.85
2023-05-05T13:04:30.981Z,14.27
2023-05-05T13:07:16.688Z,14.30
2023-05-05T13:09:45.620Z,13.90
2023-05-05T13:12:14.982Z,14.02
2023-05-05T13:14:44.602Z,13.76
2023-05-05T13:17:17.224Z,14.06
2023-05-05T13:19:49.333Z,14.16
2023-05-05T13:22:18.199Z,14.02
2023-05-05T13:24:52.182Z,14.40
2023-05-05T13:27:21.852Z,14.66
2023-05-05T13:29:50.760Z,14.91
2023-05-05T13:32:19.600Z,14.81
2023-05-05T13:34:48.509Z,14.89
2023-05-05T13:37:17.314Z,14.95
2023-05-05T13:39:46.341Z,15.01
2023-05-05T13:42:15.129Z,15.23
2023-05-05T13:44:43.997Z,15.72
2023-05-05T13:47:12.967Z,15.84
2023-05-05T13:49:41.942Z,15.77
2023-05-05T13:52:10.699Z,15.78
2023-05-05T13:54:39.838Z,16.44
2023-05-05T13:57:08.683Z,16.02
2023-05-05T13:59:37.601Z,15.82
2023-05-05T14:02:07.051Z,15.91
2023-05-05T14:04:36.983Z,16.64
2023-05-05T14:07:05.981Z,16.26
2023-05-05T14:09:34.903Z,16.46
2023-05-05T14:12:04.323Z,16.73
2023-05-05T14:14:36.276Z,16.81
2023-05-05T14:17:05.238Z,17.00
2023-05-05T14:19:34.232Z,16.97
2023-05-05T14:22:03.146Z,17.16
2023-05-05T14:24:32.023Z,17.39
2023-05-05T14:27:01.029Z,17.45
2023-05-05T14:29:29.841Z,17.50
2023-05-05T14:31:58.727Z,17.75
2023-05-05T14:34:27.515Z,18.06
2023-05-05T14:36:56.349Z,17.93
2023-05-05T14:39:25.219Z,18.30
2023-05-05T14:41:54.186Z,18.50
2023-05-05T14:44:23.126Z,18.45
2023-05-05T14:46:52.119Z,18.17
2023-05-05T14:49:21.236Z,18.31
2023-05-05T14:51:54.344Z,18.52
2023-05-05T14:54:28.462Z,18.85
2023-05-05T14:56:59.151Z,18.88
2023-05-05T14:59:31.061Z,18.95
2023-05-05T15:02:00.423Z,19.11
2023-05-05T15:04:29.404Z,19.10
2023-05-05T15:06:58.807Z,19.60
2023-05-05T15:09:27.759Z,19.73
2023-05-05T15:11:56.711Z,20.04
2023-05-05T15:14:25.600Z,20.09
2023-05-05T15:16:54.559Z,20.26
2023-05-05T15:19:23.360Z,20.50
2023-05-05T15:21:54.744Z,20.60
2023-05-05T15:24:24.078Z,21.15
2023-05-05T15:26:53.240Z,21.77
2023-05-05T15:29:22.244Z,21.90
2023-05-05T15:31:51.592Z,21.78
2023-05-05T15:34:20.285Z,22.44
2023-05-05T15:36:49.235Z,22.46
2023-05-05T15:39:18.750Z,22.41
2023-05-05T15:41:48.247Z,23.02
2023-05-05T15:44:17.281Z,22.91
2023-05-05T15:46:48.334Z,23.68
2023-05-05T15:49:20.097Z,23.29
2023-05-05T15:51:49.328Z,23.88
2023-05-05T15:54:18.347Z,23.96
2023-05-05T15:56:47.117Z,24.06
2023-05-05T15:59:16.192Z,24.25
2023-05-05T16:01:45.130Z,24.93
2023-05-05T16:04:13.962Z,24.25
2023-05-05T16:06:43.658Z,24.54
2023-05-05T16:09:13.017Z,24.67
2023-05-05T16:11:42.489Z,24.65
2023-05-05T16:14:11.574Z,25.10
2023-05-05T16:16:40.545Z,25.35
2023-05-05T16:19:10.093Z,25.70
2023-05-05T16:21:39.118Z,25.15
2023-05-05T16:24:08.654Z,25.38
2023-05-05T16:26:37.796Z,26.10
2023-05-05T16:29:06.806Z,26.47
2023-05-05T16:31:36.037Z,26.81
2023-05-05T16:34:05.749Z,25.94
2023-05-05T16:36:37.258Z,26.67
2023-05-05T16:39:06.395Z,26.41
2023-05-05T16:41:35.844Z,27.87
2023-05-05T16:44:04.872Z,26.55
2023-05-05T16:46:38.246Z,26.55
2023-05-05T16:49:07.731Z,27.34
2023-05-05T16:51:39.462Z,27.06
2023-05-05T16:54:11.787Z,26.38
2023-05-05T16:56:43.362Z,26.99
2023-05-05T16:59:12.447Z,26.84
2023-05-05T17:01:41.995Z,27.13
2023-05-05T17:04:11.696Z,27.80
2023-05-05T17:06:41.022Z,28.07
2023-05-05T17:09:10.174Z,27.76
2023-05-05T17:11:38.868Z,28.28
2023-05-05T17:14:07.932Z,28.73
2023-05-05T17:16:36.824Z,27.98
2023-05-05T17:19:08.700Z,28.28
2023-05-05T17:21:37.648Z,27.47
2023-05-05T17:24:07.238Z,27.98
2023-05-05T17:26:37.033Z,27.76
2023-05-05T17:29:06.939Z,28.37
2023-05-05T17:31:35.818Z,28.09
2023-05-05T17:34:05.030Z,28.52
2023-05-05T17:36:34.647Z,28.48
2023-05-05T17:39:03.707Z,27.88
2023-05-05T17:41:32.858Z,28.02
2023-05-05T17:44:02.156Z,28.05
2023-05-05T17:46:31.299Z,28.14
2023-05-05T17:49:01.777Z,27.85
2023-05-05T17:51:30.714Z,28.68
2023-05-05T17:53:59.682Z,28.66
2023-05-05T17:56:28.407Z,29.13
2023-05-05T17:58:57.458Z,29.32
2023-05-05T18:01:27.593Z,29.69
2023-05-05T18:03:56.710Z,29.09
2023-05-05T18:06:25.937Z,29.37
2023-05-05T18:08:57.996Z,29.29
2023-05-05T18:11:29.718Z,29.33
2023-05-05T18:13:58.557Z,29.56
2023-05-05T18:16:27.429Z,29.47
2023-05-05T18:18:56.869Z,29.48
2023-05-05T18:21:26.076Z,29.99
2023-05-05T18:24:01.777Z,29.37
2023-05-05T18:26:36.888Z,29.29
2023-05-05T18:29:05.974Z,29.14
2023-05-05T18:31:35.432Z,29.39
2023-05-05T18:34:04.544Z,29.45
2023-05-05T18:36:33.575Z,29.53
2023-05-05T18:39:02.520Z,29.60
2023-05-05T18:41:31.815Z,29.99
2023-05-05T18:44:01.521Z,30.27
2023-05-05T18:46:30.559Z,30.21
2023-05-05T18:48:59.559Z,30.32
2023-05-05T18:51:29.256Z,30.26
2023-05-05T18:53:57.952Z,30.45
2023-05-05T18:56:26.896Z,30.18
2023-05-05T18:58:56.444Z,30.29
2023-05-05T19:01:30.355Z,30.22
2023-05-05T19:03:59.442Z,30.37
2023-05-05T19:06:29.056Z,30.32
2023-05-05T19:08:58.071Z,30.14
2023-05-05T19:11:27.099Z,30.24
2023-05-05T19:13:56.005Z,30.54
2023-05-05T19:16:25.191Z,30.60
2023-05-05T19:18:59.463Z,30.48
2023-05-05T19:21:29.053Z,30.32
2023-05-05T19:23:58.917Z,30.44
2023-05-05T19:26:27.882Z,30.67
2023-05-05T19:28:56.708Z,31.15
2023-05-05T19:31:28.513Z,31.19
2023-05-05T19:34:03.304Z,31.53
2023-05-05T19:36:33.143Z,31.17
2023-05-05T19:39:03.037Z,31.26
2023-05-05T19:41:32.099Z,31.42
2023-05-05T19:44:01.356Z,31.17
2023-05-05T19:46:30.590Z,31.29
2023-05-05T19:48:59.508Z,31.22
2023-05-05T19:51:28.850Z,31.07
2023-05-05T19:53:58.045Z,31.37
2023-05-05T19:56:27.308Z,31.72
2023-05-05T19:58:57.332Z,32.06
2023-05-05T20:01:27.543Z,32.11
2023-05-05T20:03:57.989Z,32.11
2023-05-05T20:06:27.608Z,32.97
2023-05-05T20:08:56.445Z,32.17
2023-05-05T20:11:27.223Z,31.82
2023-05-05T20:13:56.258Z,32.03
2023-05-05T20:16:25.588Z,32.33
2023-05-05T20:18:54.276Z,32.56
2023-05-05T20:21:23.069Z,31.87
2023-05-05T20:23:51.778Z,32.63
2023-05-05T20:26:20.527Z,32.13
2023-05-05T20:28:49.426Z,32.68
2023-05-05T20:31:18.288Z,32.59
2023-05-05T20:33:47.189Z,32.99
2023-05-05T20:36:17.293Z,32.57
2023-05-05T20:38:46.249Z,33.01
2023-05-05T20:41:14.960Z,33.00
2023-05-05T20:43:43.903Z,33.72
2023-05-05T20:46:13.430Z,33.95
2023-05-05T20:48:42.889Z,33.42
2023-05-05T20:51:12.508Z,33.43
2023-05-05T20:53:41.463Z,33.52
2023-05-05T20:56:10.327Z,33.62
2023-05-05T20:58:39.027Z,33.77
2023-05-05T21:01:08.326Z,33.78
2023-05-05T21:03:37.359Z,33.63
2023-05-05T21:06:06.379Z,34.63
2023-05-05T21:08:35.150Z,34.71
2023-05-05T21:11:04.447Z,34.26
2023-05-05T21:13:33.709Z,34.97
2023-05-05T21:16:05.210Z,35.08
2023-05-05T21:18:34.458Z,35.44
2023-05-05T21:21:03.306Z,35.23
2023-05-05T21:23:31.946Z,35.96
2023-05-05T21:26:01.089Z,35.76
2023-05-05T21:28:29.863Z,35.00
2023-05-05T21:31:19.633Z,35.81
2023-05-05T21:33:47.868Z,36.28
2023-05-05T21:36:18.447Z,36.30
2023-05-05T21:38:47.247Z,36.56
2023-05-05T21:41:15.945Z,36.30
2023-05-05T21:43:44.840Z,36.92
2023-05-05T21:46:13.947Z,36.89
2023-05-05T21:48:42.584Z,37.29
2023-05-05T21:51:11.969Z,37.14
2023-05-05T21:53:41.583Z,36.84
2023-05-05T21:56:10.098Z,36.55
2023-05-05T21:58:39.072Z,36.63
2023-05-05T22:01:08.670Z,37.21
2023-05-05T22:03:37.747Z,37.09
2023-05-05T22:06:06.655Z,37.55
2023-05-05T22:08:35.570Z,37.84
2023-05-05T22:11:04.871Z,38.57
2023-05-05T22:13:33.384Z,38.50
2023-05-05T22:16:02.283Z,38.11
2023-05-05T22:18:31.122Z,37.62
2023-05-05T22:21:00.276Z,37.52
2023-05-05T22:23:29.310Z,37.84
2023-05-05T22:25:58.304Z,38.27
2023-05-05T22:28:28.513Z,38.25
2023-05-05T22:30:57.908Z,38.29
2023-05-05T22:33:26.810Z,38.04
2023-05-05T22:35:55.860Z,38.96
2023-05-05T22:38:24.626Z,38.96
2023-05-05T22:40:53.472Z,39.12
2023-05-05T22:43:22.223Z,38.86
2023-05-05T22:45:51.863Z,38.85
2023-05-05T22:48:20.800Z,39.07
2023-05-05T22:50:49.640Z,39.02
2023-05-05T22:53:18.235Z,39.16
2023-05-05T22:55:47.060Z,39.13
2023-05-05T22:58:16.235Z,38.89
2023-05-05T23:00:45.142Z,39.80
2023-05-05T23:03:14.196Z,39.81
2023-05-05T23:05:42.747Z,39.81
2023-05-05T23:08:11.775Z,39.83
2023-05-05T23:10:40.881Z,39.58
2023-05-05T23:13:09.759Z,39.96
2023-05-05T23:15:38.919Z,39.65
2023-05-05T23:18:07.944Z,39.86
2023-05-05T23:20:37.164Z,40.18
2023-05-05T23:23:06.468Z,40.13
2023-05-05T23:25:35.402Z,40.64
2023-05-05T23:28:04.344Z,40.51
2023-05-05T23:30:32.968Z,40.48
2023-05-05T23:33:01.975Z,39.84
2023-05-05T23:35:31.145Z,40.14
2023-05-05T23:37:59.913Z,40.09
2023-05-05T23:40:28.745Z,39.95
2023-05-05T23:42:57.437Z,39.14
2023-05-05T23:45:26.253Z,39.11
2023-05-05T23:47:54.954Z,39.04
2023-05-05T23:50:23.900Z,39.15
2023-05-05T23:52:52.875Z,38.83
2023-05-05T23:55:21.948Z,39.23
2023-05-05T23:57:52.924Z,39.53
